sensor_id;sensor_type;location;lat;lon;timestamp;P1;durP1;ratioP1;P2;durP2;ratioP2
5225;SDS011;2632;51.666;7.146;2023-01-04T00:00:49;9.03;;;1.27;;
5225;SDS011;2632;51.666;7.146;2023-01-04T00:03:16;2.70;;;1.20;;
5225;SDS011;2632;51.666;7.146;2023-01-04T00:05:42;3.77;;;1.67;;
5225;SDS011;2632;51.666;7.146;2023-01-04T00:08:09;4.20;;;1.47;;
5225;SDS011;2632;51.666;7.146;2023-01-04T00:10:35;1.87;;;1.20;;
5225;SDS011;2632;51.666;7.146;2023-01-04T00:13:02;4.13;;;1.73;;
5225;SDS011;2632;51.666;7.146;2023-01-04T00:15:29;4.40;;;3.00;;
5225;SDS011;2632;51.666;7.146;2023-01-04T00:17:56;4.13;;;1.50;;
5225;SDS011;2632;51.666;7.146;2023-01-04T00:20:22;4.67;;;1.60;;
5225;SDS011;2632;51.666;7.146;2023-01-04T00:22:49;3.03;;;1.20;;
5225;SDS011;2632;51.666;7.146;2023-01-04T00:25:16;4.43;;;1.37;;
5225;SDS011;2632;51.666;7.146;2023-01-04T00:27:42;3.60;;;1.53;;
5225;SDS011;2632;51.666;7.146;2023-01-04T00:30:09;5.17;;;1.43;;
5225;SDS011;2632;51.666;7.146;2023-01-04T00:32:36;1.90;;;1.13;;
5225;SDS011;2632;51.666;7.146;2023-01-04T00:35:02;10.23;;;3.20;;
5225;SDS011;2632;51.666;7.146;2023-01-04T00:37:30;2.73;;;1.10;;
5225;SDS011;2632;51.666;7.146;2023-01-04T00:39:56;2.23;;;1.37;;
5225;SDS011;2632;51.666;7.146;2023-01-04T00:42:23;2.43;;;0.97;;
5225;SDS011;2632;51.666;7.146;2023-01-04T00:44:50;6.90;;;1.60;;
5225;SDS011;2632;51.666;7.146;2023-01-04T00:47:16;3.80;;;1.30;;
5225;SDS011;2632;51.666;7.146;2023-01-04T00:49:43;3.13;;;1.20;;
5225;SDS011;2632;51.666;7.146;2023-01-04T00:52:09;4.10;;;1.43;;
5225;SDS011;2632;51.666;7.146;2023-01-04T00:54:36;2.80;;;1.07;;
5225;SDS011;2632;51.666;7.146;2023-01-04T00:57:03;3.20;;;1.40;;
5225;SDS011;2632;51.666;7.146;2023-01-04T00:59:30;5.97;;;0.90;;
5225;SDS011;2632;51.666;7.146;2023-01-04T01:01:57;4.03;;;1.27;;
5225;SDS011;2632;51.666;7.146;2023-01-04T01:04:23;1.60;;;1.00;;
5225;SDS011;2632;51.666;7.146;2023-01-04T01:06:51;2.23;;;0.90;;
5225;SDS011;2632;51.666;7.146;2023-01-04T01:09:18;2.20;;;1.07;;
5225;SDS011;2632;51.666;7.146;2023-01-04T01:11:48;3.83;;;1.27;;
5225;SDS011;2632;51.666;7.146;2023-01-04T01:14:16;3.67;;;1.10;;
5225;SDS011;2632;51.666;7.146;2023-01-04T01:16:45;2.17;;;1.20;;
5225;SDS011;2632;51.666;7.146;2023-01-04T01:19:23;3.07;;;1.30;;
5225;SDS011;2632;51.666;7.146;2023-01-04T01:21:51;5.07;;;1.47;;
5225;SDS011;2632;51.666;7.146;2023-01-04T01:24:18;6.00;;;1.37;;
5225;SDS011;2632;51.666;7.146;2023-01-04T01:26:45;4.87;;;1.60;;
5225;SDS011;2632;51.666;7.146;2023-01-04T01:29:12;3.33;;;1.30;;
5225;SDS011;2632;51.666;7.146;2023-01-04T01:31:39;4.67;;;1.87;;
5225;SDS011;2632;51.666;7.146;2023-01-04T01:34:07;3.20;;;1.30;;
5225;SDS011;2632;51.666;7.146;2023-01-04T01:36:34;4.03;;;1.00;;
5225;SDS011;2632;51.666;7.146;2023-01-04T01:39:01;3.10;;;1.20;;
5225;SDS011;2632;51.666;7.146;2023-01-04T01:41:29;4.13;;;1.10;;
5225;SDS011;2632;51.666;7.146;2023-01-04T01:44:02;2.63;;;1.57;;
5225;SDS011;2632;51.666;7.146;2023-01-04T01:46:36;6.40;;;1.40;;
5225;SDS011;2632;51.666;7.146;2023-01-04T01:49:13;4.10;;;1.43;;
5225;SDS011;2632;51.666;7.146;2023-01-04T01:51:58;7.70;;;1.30;;
5225;SDS011;2632;51.666;7.146;2023-01-04T01:57:30;2.10;;;1.10;;
5225;SDS011;2632;51.666;7.146;2023-01-04T02:00:00;4.53;;;1.37;;
5225;SDS011;2632;51.666;7.146;2023-01-04T02:02:31;12.23;;;1.80;;
5225;SDS011;2632;51.666;7.146;2023-01-04T02:04:58;5.80;;;1.40;;
5225;SDS011;2632;51.666;7.146;2023-01-04T02:07:27;3.03;;;1.20;;
5225;SDS011;2632;51.666;7.146;2023-01-04T02:09:54;5.50;;;1.23;;
5225;SDS011;2632;51.666;7.146;2023-01-04T02:12:22;5.50;;;1.27;;
5225;SDS011;2632;51.666;7.146;2023-01-04T02:14:49;3.17;;;1.50;;
5225;SDS011;2632;51.666;7.146;2023-01-04T02:17:26;4.13;;;1.20;;
5225;SDS011;2632;51.666;7.146;2023-01-04T02:22:41;3.57;;;1.20;;
5225;SDS011;2632;51.666;7.146;2023-01-04T02:28:34;1.70;;;1.30;;
5225;SDS011;2632;51.666;7.146;2023-01-04T02:31:28;3.13;;;1.40;;
5225;SDS011;2632;51.666;7.146;2023-01-04T02:34:18;3.73;;;1.30;;
5225;SDS011;2632;51.666;7.146;2023-01-04T02:36:57;1.90;;;1.13;;
5225;SDS011;2632;51.666;7.146;2023-01-04T02:45:31;1.27;;;1.17;;
5225;SDS011;2632;51.666;7.146;2023-01-04T02:48:04;6.13;;;1.40;;
5225;SDS011;2632;51.666;7.146;2023-01-04T02:50:56;8.20;;;1.50;;
5225;SDS011;2632;51.666;7.146;2023-01-04T02:53:28;4.73;;;1.13;;
5225;SDS011;2632;51.666;7.146;2023-01-04T02:59:07;3.63;;;1.30;;
5225;SDS011;2632;51.666;7.146;2023-01-04T03:01:49;3.33;;;1.40;;
5225;SDS011;2632;51.666;7.146;2023-01-04T03:07:53;4.60;;;1.80;;
5225;SDS011;2632;51.666;7.146;2023-01-04T03:10:48;6.43;;;1.70;;
5225;SDS011;2632;51.666;7.146;2023-01-04T03:13:24;5.43;;;1.83;;
5225;SDS011;2632;51.666;7.146;2023-01-04T03:16:04;4.33;;;1.83;;
5225;SDS011;2632;51.666;7.146;2023-01-04T03:18:37;3.80;;;1.57;;
5225;SDS011;2632;51.666;7.146;2023-01-04T03:21:08;4.47;;;1.97;;
5225;SDS011;2632;51.666;7.146;2023-01-04T03:23:38;5.30;;;1.80;;
5225;SDS011;2632;51.666;7.146;2023-01-04T03:32:32;3.57;;;1.60;;
5225;SDS011;2632;51.666;7.146;2023-01-04T03:35:26;5.03;;;1.77;;
5225;SDS011;2632;51.666;7.146;2023-01-04T03:41:02;3.27;;;1.80;;
5225;SDS011;2632;51.666;7.146;2023-01-04T03:44:00;4.30;;;2.23;;
5225;SDS011;2632;51.666;7.146;2023-01-04T03:46:52;4.03;;;2.20;;
5225;SDS011;2632;51.666;7.146;2023-01-04T03:49:43;3.93;;;1.90;;
5225;SDS011;2632;51.666;7.146;2023-01-04T03:52:14;3.70;;;1.60;;
5225;SDS011;2632;51.666;7.146;2023-01-04T03:54:43;6.07;;;2.20;;
5225;SDS011;2632;51.666;7.146;2023-01-04T03:57:12;4.73;;;2.00;;
5225;SDS011;2632;51.666;7.146;2023-01-04T03:59:42;3.20;;;1.57;;
5225;SDS011;2632;51.666;7.146;2023-01-04T04:02:14;7.90;;;1.60;;
5225;SDS011;2632;51.666;7.146;2023-01-04T04:04:44;4.30;;;1.60;;
5225;SDS011;2632;51.666;7.146;2023-01-04T04:07:30;2.23;;;1.50;;
5225;SDS011;2632;51.666;7.146;2023-01-04T04:10:15;3.03;;;1.40;;
5225;SDS011;2632;51.666;7.146;2023-01-04T04:12:42;3.70;;;1.50;;
5225;SDS011;2632;51.666;7.146;2023-01-04T04:15:09;1.93;;;1.20;;
5225;SDS011;2632;51.666;7.146;2023-01-04T04:17:36;5.63;;;1.53;;
5225;SDS011;2632;51.666;7.146;2023-01-04T04:20:02;2.13;;;1.03;;
5225;SDS011;2632;51.666;7.146;2023-01-04T04:22:29;1.30;;;1.13;;
5225;SDS011;2632;51.666;7.146;2023-01-04T04:24:58;2.83;;;1.03;;
5225;SDS011;2632;51.666;7.146;2023-01-04T04:27:25;4.30;;;1.20;;
5225;SDS011;2632;51.666;7.146;2023-01-04T04:29:51;2.53;;;0.97;;
5225;SDS011;2632;51.666;7.146;2023-01-04T04:32:18;3.70;;;1.20;;
5225;SDS011;2632;51.666;7.146;2023-01-04T04:34:44;3.30;;;1.20;;
5225;SDS011;2632;51.666;7.146;2023-01-04T04:37:11;3.43;;;1.17;;
5225;SDS011;2632;51.666;7.146;2023-01-04T04:39:37;1.17;;;1.03;;
5225;SDS011;2632;51.666;7.146;2023-01-04T04:42:04;1.53;;;1.20;;
5225;SDS011;2632;51.666;7.146;2023-01-04T04:44:32;2.63;;;1.10;;
5225;SDS011;2632;51.666;7.146;2023-01-04T04:46:59;2.03;;;1.30;;
5225;SDS011;2632;51.666;7.146;2023-01-04T04:49:26;1.83;;;1.20;;
5225;SDS011;2632;51.666;7.146;2023-01-04T04:51:52;1.43;;;1.20;;
5225;SDS011;2632;51.666;7.146;2023-01-04T04:54:20;3.00;;;1.53;;
5225;SDS011;2632;51.666;7.146;2023-01-04T04:56:47;2.10;;;0.90;;
5225;SDS011;2632;51.666;7.146;2023-01-04T04:59:15;1.00;;;0.90;;
5225;SDS011;2632;51.666;7.146;2023-01-04T05:01:41;3.53;;;1.50;;
5225;SDS011;2632;51.666;7.146;2023-01-04T05:04:08;1.30;;;1.20;;
5225;SDS011;2632;51.666;7.146;2023-01-04T05:06:39;1.33;;;1.20;;
5225;SDS011;2632;51.666;7.146;2023-01-04T05:09:05;1.97;;;1.40;;
5225;SDS011;2632;51.666;7.146;2023-01-04T05:11:32;5.87;;;1.47;;
5225;SDS011;2632;51.666;7.146;2023-01-04T05:14:17;1.70;;;1.37;;
5225;SDS011;2632;51.666;7.146;2023-01-04T05:16:44;1.50;;;1.13;;
5225;SDS011;2632;51.666;7.146;2023-01-04T05:19:10;1.77;;;0.97;;
5225;SDS011;2632;51.666;7.146;2023-01-04T05:21:37;2.50;;;1.50;;
5225;SDS011;2632;51.666;7.146;2023-01-04T05:24:06;2.80;;;2.20;;
5225;SDS011;2632;51.666;7.146;2023-01-04T05:26:37;3.70;;;2.50;;
5225;SDS011;2632;51.666;7.146;2023-01-04T05:29:03;2.13;;;1.70;;
5225;SDS011;2632;51.666;7.146;2023-01-04T05:31:30;2.67;;;1.90;;
5225;SDS011;2632;51.666;7.146;2023-01-04T05:33:57;2.23;;;1.80;;
5225;SDS011;2632;51.666;7.146;2023-01-04T05:36:23;5.07;;;4.33;;
5225;SDS011;2632;51.666;7.146;2023-01-04T05:38:50;2.37;;;2.00;;
5225;SDS011;2632;51.666;7.146;2023-01-04T05:41:17;3.67;;;2.40;;
5225;SDS011;2632;51.666;7.146;2023-01-04T05:44:02;2.50;;;2.30;;
5225;SDS011;2632;51.666;7.146;2023-01-04T05:46:29;2.83;;;1.80;;
5225;SDS011;2632;51.666;7.146;2023-01-04T05:48:55;1.80;;;1.70;;
5225;SDS011;2632;51.666;7.146;2023-01-04T05:51:22;4.20;;;1.67;;
5225;SDS011;2632;51.666;7.146;2023-01-04T05:53:49;2.23;;;1.90;;
5225;SDS011;2632;51.666;7.146;2023-01-04T05:56:15;1.50;;;1.40;;
5225;SDS011;2632;51.666;7.146;2023-01-04T05:58:42;1.90;;;1.80;;
5225;SDS011;2632;51.666;7.146;2023-01-04T06:01:08;1.97;;;1.80;;
5225;SDS011;2632;51.666;7.146;2023-01-04T06:03:35;1.53;;;1.40;;
5225;SDS011;2632;51.666;7.146;2023-01-04T06:06:02;2.33;;;1.60;;
5225;SDS011;2632;51.666;7.146;2023-01-04T06:08:28;3.97;;;2.10;;
5225;SDS011;2632;51.666;7.146;2023-01-04T06:10:55;1.97;;;1.60;;
5225;SDS011;2632;51.666;7.146;2023-01-04T06:13:22;2.10;;;1.73;;
5225;SDS011;2632;51.666;7.146;2023-01-04T06:15:48;2.03;;;1.10;;
5225;SDS011;2632;51.666;7.146;2023-01-04T06:18:15;3.90;;;1.80;;
5225;SDS011;2632;51.666;7.146;2023-01-04T06:20:42;4.50;;;2.33;;
5225;SDS011;2632;51.666;7.146;2023-01-04T06:23:09;2.70;;;1.70;;
5225;SDS011;2632;51.666;7.146;2023-01-04T06:25:36;3.23;;;1.90;;
5225;SDS011;2632;51.666;7.146;2023-01-04T06:28:02;3.00;;;1.73;;
5225;SDS011;2632;51.666;7.146;2023-01-04T06:30:29;2.00;;;1.77;;
5225;SDS011;2632;51.666;7.146;2023-01-04T06:32:56;3.00;;;1.57;;
5225;SDS011;2632;51.666;7.146;2023-01-04T06:35:22;1.27;;;1.17;;
5225;SDS011;2632;51.666;7.146;2023-01-04T06:37:49;2.80;;;1.40;;
5225;SDS011;2632;51.666;7.146;2023-01-04T06:40:15;1.83;;;1.70;;
5225;SDS011;2632;51.666;7.146;2023-01-04T06:42:43;2.80;;;1.80;;
5225;SDS011;2632;51.666;7.146;2023-01-04T06:45:09;2.57;;;1.90;;
5225;SDS011;2632;51.666;7.146;2023-01-04T06:47:36;3.03;;;2.10;;
5225;SDS011;2632;51.666;7.146;2023-01-04T06:50:04;2.10;;;1.50;;
5225;SDS011;2632;51.666;7.146;2023-01-04T06:52:30;2.40;;;1.70;;
5225;SDS011;2632;51.666;7.146;2023-01-04T06:54:57;1.80;;;1.70;;
5225;SDS011;2632;51.666;7.146;2023-01-04T06:57:24;2.03;;;1.80;;
5225;SDS011;2632;51.666;7.146;2023-01-04T06:59:52;1.70;;;1.50;;
5225;SDS011;2632;51.666;7.146;2023-01-04T07:02:21;1.50;;;1.37;;
5225;SDS011;2632;51.666;7.146;2023-01-04T07:04:48;2.70;;;2.30;;
5225;SDS011;2632;51.666;7.146;2023-01-04T07:07:15;2.80;;;2.30;;
5225;SDS011;2632;51.666;7.146;2023-01-04T07:09:41;1.70;;;1.60;;
5225;SDS011;2632;51.666;7.146;2023-01-04T07:12:08;3.97;;;2.20;;
5225;SDS011;2632;51.666;7.146;2023-01-04T07:14:35;3.30;;;2.27;;
5225;SDS011;2632;51.666;7.146;2023-01-04T07:17:01;1.67;;;1.30;;
5225;SDS011;2632;51.666;7.146;2023-01-04T07:19:28;2.57;;;1.80;;
5225;SDS011;2632;51.666;7.146;2023-01-04T07:21:55;2.03;;;1.70;;
5225;SDS011;2632;51.666;7.146;2023-01-04T07:24:24;2.00;;;1.50;;
5225;SDS011;2632;51.666;7.146;2023-01-04T07:26:55;1.40;;;1.30;;
5225;SDS011;2632;51.666;7.146;2023-01-04T07:29:24;1.73;;;1.60;;
5225;SDS011;2632;51.666;7.146;2023-01-04T07:31:51;2.90;;;1.80;;
5225;SDS011;2632;51.666;7.146;2023-01-04T07:34:18;2.60;;;1.90;;
5225;SDS011;2632;51.666;7.146;2023-01-04T07:36:48;4.63;;;1.93;;
5225;SDS011;2632;51.666;7.146;2023-01-04T07:39:15;2.07;;;1.70;;
5225;SDS011;2632;51.666;7.146;2023-01-04T07:41:43;3.40;;;1.90;;
5225;SDS011;2632;51.666;7.146;2023-01-04T07:44:11;2.10;;;1.53;;
5225;SDS011;2632;51.666;7.146;2023-01-04T07:46:38;4.17;;;2.13;;
5225;SDS011;2632;51.666;7.146;2023-01-04T07:49:05;1.60;;;1.50;;
5225;SDS011;2632;51.666;7.146;2023-01-04T07:51:42;2.90;;;2.50;;
5225;SDS011;2632;51.666;7.146;2023-01-04T07:54:09;3.23;;;2.13;;
5225;SDS011;2632;51.666;7.146;2023-01-04T07:56:36;4.70;;;2.30;;
5225;SDS011;2632;51.666;7.146;2023-01-04T07:59:04;2.77;;;2.43;;
5225;SDS011;2632;51.666;7.146;2023-01-04T08:01:32;3.50;;;2.20;;
5225;SDS011;2632;51.666;7.146;2023-01-04T08:04:04;3.00;;;2.00;;
5225;SDS011;2632;51.666;7.146;2023-01-04T08:06:32;2.00;;;1.90;;
5225;SDS011;2632;51.666;7.146;2023-01-04T08:08:59;2.00;;;1.90;;
5225;SDS011;2632;51.666;7.146;2023-01-04T08:11:26;6.13;;;2.50;;
5225;SDS011;2632;51.666;7.146;2023-01-04T08:13:53;2.30;;;1.97;;
5225;SDS011;2632;51.666;7.146;2023-01-04T08:16:24;2.47;;;2.20;;
5225;SDS011;2632;51.666;7.146;2023-01-04T08:18:54;4.90;;;2.27;;
5225;SDS011;2632;51.666;7.146;2023-01-04T08:21:22;2.90;;;2.00;;
5225;SDS011;2632;51.666;7.146;2023-01-04T08:23:49;2.03;;;1.90;;
5225;SDS011;2632;51.666;7.146;2023-01-04T08:26:17;1.80;;;1.50;;
5225;SDS011;2632;51.666;7.146;2023-01-04T08:28:44;1.97;;;1.80;;
5225;SDS011;2632;51.666;7.146;2023-01-04T08:31:12;3.23;;;2.50;;
5225;SDS011;2632;51.666;7.146;2023-01-04T08:33:43;2.53;;;1.93;;
5225;SDS011;2632;51.666;7.146;2023-01-04T08:36:11;2.40;;;2.20;;
5225;SDS011;2632;51.666;7.146;2023-01-04T08:38:54;2.10;;;1.90;;
5225;SDS011;2632;51.666;7.146;2023-01-04T08:41:27;3.30;;;2.40;;
5225;SDS011;2632;51.666;7.146;2023-01-04T08:44:15;3.47;;;2.17;;
5225;SDS011;2632;51.666;7.146;2023-01-04T08:46:43;1.70;;;1.60;;
5225;SDS011;2632;51.666;7.146;2023-01-04T08:49:09;2.00;;;1.80;;
5225;SDS011;2632;51.666;7.146;2023-01-04T08:51:36;2.00;;;1.80;;
5225;SDS011;2632;51.666;7.146;2023-01-04T08:54:03;1.90;;;1.80;;
5225;SDS011;2632;51.666;7.146;2023-01-04T08:56:29;2.40;;;1.97;;
5225;SDS011;2632;51.666;7.146;2023-01-04T08:58:56;4.63;;;2.10;;
5225;SDS011;2632;51.666;7.146;2023-01-04T09:01:22;2.10;;;1.33;;
5225;SDS011;2632;51.666;7.146;2023-01-04T09:03:49;2.00;;;1.73;;
5225;SDS011;2632;51.666;7.146;2023-01-04T09:06:16;3.93;;;1.70;;
5225;SDS011;2632;51.666;7.146;2023-01-04T09:08:43;1.90;;;1.80;;
5225;SDS011;2632;51.666;7.146;2023-01-04T09:11:13;3.60;;;1.87;;
5225;SDS011;2632;51.666;7.146;2023-01-04T09:13:42;6.10;;;1.50;;
5225;SDS011;2632;51.666;7.146;2023-01-04T09:16:11;2.90;;;1.90;;
5225;SDS011;2632;51.666;7.146;2023-01-04T09:18:42;1.60;;;1.30;;
5225;SDS011;2632;51.666;7.146;2023-01-04T09:21:11;2.03;;;1.50;;
5225;SDS011;2632;51.666;7.146;2023-01-04T09:23:40;1.53;;;1.43;;
5225;SDS011;2632;51.666;7.146;2023-01-04T09:26:15;3.97;;;1.70;;
5225;SDS011;2632;51.666;7.146;2023-01-04T09:28:48;1.80;;;1.67;;
5225;SDS011;2632;51.666;7.146;2023-01-04T09:31:20;2.23;;;2.07;;
5225;SDS011;2632;51.666;7.146;2023-01-04T09:33:48;2.23;;;1.50;;
5225;SDS011;2632;51.666;7.146;2023-01-04T09:36:35;2.73;;;2.20;;
5225;SDS011;2632;51.666;7.146;2023-01-04T09:39:02;1.97;;;1.83;;
5225;SDS011;2632;51.666;7.146;2023-01-04T09:41:39;2.87;;;2.10;;
5225;SDS011;2632;51.666;7.146;2023-01-04T09:50:27;3.70;;;2.50;;
5225;SDS011;2632;51.666;7.146;2023-01-04T09:53:04;2.77;;;2.57;;
5225;SDS011;2632;51.666;7.146;2023-01-04T09:55:37;3.30;;;2.50;;
5225;SDS011;2632;51.666;7.146;2023-01-04T09:58:22;5.10;;;3.17;;
5225;SDS011;2632;51.666;7.146;2023-01-04T10:01:02;3.20;;;2.50;;
5225;SDS011;2632;51.666;7.146;2023-01-04T10:03:57;3.23;;;2.63;;
5225;SDS011;2632;51.666;7.146;2023-01-04T10:06:42;2.03;;;1.80;;
5225;SDS011;2632;51.666;7.146;2023-01-04T10:09:10;5.83;;;2.17;;
5225;SDS011;2632;51.666;7.146;2023-01-04T10:14:39;5.33;;;2.50;;
5225;SDS011;2632;51.666;7.146;2023-01-04T10:17:14;2.80;;;2.20;;
5225;SDS011;2632;51.666;7.146;2023-01-04T10:20:53;6.50;;;1.93;;
5225;SDS011;2632;51.666;7.146;2023-01-04T10:23:53;2.43;;;1.87;;
5225;SDS011;2632;51.666;7.146;2023-01-04T10:26:40;3.50;;;1.77;;
5225;SDS011;2632;51.666;7.146;2023-01-04T10:29:18;1.80;;;1.70;;
5225;SDS011;2632;51.666;7.146;2023-01-04T10:31:56;2.83;;;2.07;;
5225;SDS011;2632;51.666;7.146;2023-01-04T10:34:36;2.50;;;1.83;;
5225;SDS011;2632;51.666;7.146;2023-01-04T10:37:11;1.70;;;1.30;;
5225;SDS011;2632;51.666;7.146;2023-01-04T10:39:39;1.70;;;1.60;;
5225;SDS011;2632;51.666;7.146;2023-01-04T10:42:12;1.53;;;1.43;;
5225;SDS011;2632;51.666;7.146;2023-01-04T10:47:36;2.30;;;1.57;;
5225;SDS011;2632;51.666;7.146;2023-01-04T10:50:17;3.50;;;1.73;;
5225;SDS011;2632;51.666;7.146;2023-01-04T10:52:55;2.53;;;2.03;;
5225;SDS011;2632;51.666;7.146;2023-01-04T10:55:35;2.50;;;1.40;;
5225;SDS011;2632;51.666;7.146;2023-01-04T10:58:38;2.00;;;1.83;;
5225;SDS011;2632;51.666;7.146;2023-01-04T11:01:11;2.20;;;1.60;;
5225;SDS011;2632;51.666;7.146;2023-01-04T11:04:16;2.03;;;1.20;;
5225;SDS011;2632;51.666;7.146;2023-01-04T11:06:48;2.53;;;1.60;;
5225;SDS011;2632;51.666;7.146;2023-01-04T11:09:22;2.40;;;1.50;;
5225;SDS011;2632;51.666;7.146;2023-01-04T11:11:52;3.00;;;2.70;;
5225;SDS011;2632;51.666;7.146;2023-01-04T11:14:21;3.93;;;2.10;;
5225;SDS011;2632;51.666;7.146;2023-01-04T11:16:50;4.03;;;1.37;;
5225;SDS011;2632;51.666;7.146;2023-01-04T11:19:19;1.50;;;1.40;;
5225;SDS011;2632;51.666;7.146;2023-01-04T11:21:50;3.43;;;1.50;;
5225;SDS011;2632;51.666;7.146;2023-01-04T11:24:22;3.13;;;1.50;;
5225;SDS011;2632;51.666;7.146;2023-01-04T11:27:01;2.10;;;1.60;;
5225;SDS011;2632;51.666;7.146;2023-01-04T11:29:40;3.03;;;1.43;;
5225;SDS011;2632;51.666;7.146;2023-01-04T11:32:17;1.73;;;1.40;;
5225;SDS011;2632;51.666;7.146;2023-01-04T11:35:08;5.20;;;1.60;;
5225;SDS011;2632;51.666;7.146;2023-01-04T11:37:36;2.60;;;1.60;;
5225;SDS011;2632;51.666;7.146;2023-01-04T11:42:50;4.00;;;1.67;;
5225;SDS011;2632;51.666;7.146;2023-01-04T11:45:24;3.90;;;1.80;;
5225;SDS011;2632;51.666;7.146;2023-01-04T11:47:54;3.10;;;1.57;;
5225;SDS011;2632;51.666;7.146;2023-01-04T11:50:36;3.03;;;1.63;;
5225;SDS011;2632;51.666;7.146;2023-01-04T11:56:26;3.00;;;1.90;;
5225;SDS011;2632;51.666;7.146;2023-01-04T12:01:48;3.27;;;1.67;;
5225;SDS011;2632;51.666;7.146;2023-01-04T12:04:26;3.47;;;1.67;;
5225;SDS011;2632;51.666;7.146;2023-01-04T12:06:57;2.77;;;1.57;;
5225;SDS011;2632;51.666;7.146;2023-01-04T12:09:29;3.03;;;2.20;;
5225;SDS011;2632;51.666;7.146;2023-01-04T12:11:59;4.70;;;2.10;;
5225;SDS011;2632;51.666;7.146;2023-01-04T12:14:27;3.00;;;1.50;;
5225;SDS011;2632;51.666;7.146;2023-01-04T12:17:09;6.50;;;1.80;;
5225;SDS011;2632;51.666;7.146;2023-01-04T12:19:42;4.50;;;1.90;;
5225;SDS011;2632;51.666;7.146;2023-01-04T12:22:18;3.20;;;1.70;;
5225;SDS011;2632;51.666;7.146;2023-01-04T12:24:55;1.27;;;1.17;;
5225;SDS011;2632;51.666;7.146;2023-01-04T12:27:26;4.23;;;1.47;;
5225;SDS011;2632;51.666;7.146;2023-01-04T12:29:55;3.83;;;1.67;;
5225;SDS011;2632;51.666;7.146;2023-01-04T12:34:53;2.50;;;1.70;;
5225;SDS011;2632;51.666;7.146;2023-01-04T12:45:42;2.20;;;1.70;;
5225;SDS011;2632;51.666;7.146;2023-01-04T12:51:18;4.17;;;1.70;;
5225;SDS011;2632;51.666;7.146;2023-01-04T12:53:59;5.50;;;3.30;;
5225;SDS011;2632;51.666;7.146;2023-01-04T12:59:35;4.23;;;3.00;;
5225;SDS011;2632;51.666;7.146;2023-01-04T13:02:11;3.00;;;2.60;;
5225;SDS011;2632;51.666;7.146;2023-01-04T13:04:41;2.53;;;2.30;;
5225;SDS011;2632;51.666;7.146;2023-01-04T13:07:18;6.10;;;2.40;;
5225;SDS011;2632;51.666;7.146;2023-01-04T13:21:25;5.13;;;3.00;;
5225;SDS011;2632;51.666;7.146;2023-01-04T13:23:57;3.87;;;3.20;;
5225;SDS011;2632;51.666;7.146;2023-01-04T13:26:44;2.70;;;2.50;;
5225;SDS011;2632;51.666;7.146;2023-01-04T13:31:46;3.00;;;2.70;;
5225;SDS011;2632;51.666;7.146;2023-01-04T13:34:22;4.10;;;2.90;;
5225;SDS011;2632;51.666;7.146;2023-01-04T13:37:01;5.00;;;3.33;;
5225;SDS011;2632;51.666;7.146;2023-01-04T13:39:38;4.47;;;3.30;;
5225;SDS011;2632;51.666;7.146;2023-01-04T13:42:12;7.03;;;3.73;;
5225;SDS011;2632;51.666;7.146;2023-01-04T13:47:41;5.17;;;3.00;;
5225;SDS011;2632;51.666;7.146;2023-01-04T13:52:47;4.90;;;3.60;;
5225;SDS011;2632;51.666;7.146;2023-01-04T13:55:32;4.53;;;3.07;;
5225;SDS011;2632;51.666;7.146;2023-01-04T13:58:02;8.80;;;3.23;;
5225;SDS011;2632;51.666;7.146;2023-01-04T14:03:12;3.00;;;2.43;;
5225;SDS011;2632;51.666;7.146;2023-01-04T14:05:46;4.67;;;2.73;;
5225;SDS011;2632;51.666;7.146;2023-01-04T14:08:18;2.47;;;2.20;;
5225;SDS011;2632;51.666;7.146;2023-01-04T14:10:52;2.50;;;2.03;;
5225;SDS011;2632;51.666;7.146;2023-01-04T14:13:19;1.90;;;1.63;;
5225;SDS011;2632;51.666;7.146;2023-01-04T14:15:45;1.63;;;1.53;;
5225;SDS011;2632;51.666;7.146;2023-01-04T14:18:23;1.77;;;1.67;;
5225;SDS011;2632;51.666;7.146;2023-01-04T14:20:52;1.60;;;1.50;;
5225;SDS011;2632;51.666;7.146;2023-01-04T14:23:31;0.97;;;0.97;;
5225;SDS011;2632;51.666;7.146;2023-01-04T14:26:00;0.90;;;0.90;;
5225;SDS011;2632;51.666;7.146;2023-01-04T14:41:14;2.70;;;1.30;;
5225;SDS011;2632;51.666;7.146;2023-01-04T14:43:49;1.30;;;1.20;;
5225;SDS011;2632;51.666;7.146;2023-01-04T14:46:40;1.90;;;1.43;;
5225;SDS011;2632;51.666;7.146;2023-01-04T14:49:08;2.10;;;1.90;;
5225;SDS011;2632;51.666;7.146;2023-01-04T14:54:10;1.00;;;1.00;;
5225;SDS011;2632;51.666;7.146;2023-01-04T14:56:42;1.10;;;1.00;;
5225;SDS011;2632;51.666;7.146;2023-01-04T14:59:09;0.90;;;0.80;;
5225;SDS011;2632;51.666;7.146;2023-01-04T15:01:36;1.27;;;1.03;;
5225;SDS011;2632;51.666;7.146;2023-01-04T15:04:03;1.03;;;0.93;;
5225;SDS011;2632;51.666;7.146;2023-01-04T15:06:31;4.53;;;1.13;;
5225;SDS011;2632;51.666;7.146;2023-01-04T15:08:58;1.67;;;1.30;;
5225;SDS011;2632;51.666;7.146;2023-01-04T15:11:25;1.47;;;1.13;;
5225;SDS011;2632;51.666;7.146;2023-01-04T15:13:55;1.10;;;0.83;;
5225;SDS011;2632;51.666;7.146;2023-01-04T15:16:22;1.03;;;1.00;;
5225;SDS011;2632;51.666;7.146;2023-01-04T15:18:49;2.17;;;0.93;;
5225;SDS011;2632;51.666;7.146;2023-01-04T15:21:15;0.70;;;0.63;;
5225;SDS011;2632;51.666;7.146;2023-01-04T15:23:42;2.27;;;0.80;;
5225;SDS011;2632;51.666;7.146;2023-01-04T15:26:09;0.83;;;0.73;;
5225;SDS011;2632;51.666;7.146;2023-01-04T15:28:36;0.93;;;0.60;;
5225;SDS011;2632;51.666;7.146;2023-01-04T15:31:07;2.20;;;0.80;;
5225;SDS011;2632;51.666;7.146;2023-01-04T15:33:38;1.23;;;0.80;;
5225;SDS011;2632;51.666;7.146;2023-01-04T15:36:06;2.83;;;1.00;;
5225;SDS011;2632;51.666;7.146;2023-01-04T15:38:35;1.10;;;0.90;;
5225;SDS011;2632;51.666;7.146;2023-01-04T15:41:06;2.47;;;1.10;;
5225;SDS011;2632;51.666;7.146;2023-01-04T15:44:01;1.73;;;1.00;;
5225;SDS011;2632;51.666;7.146;2023-01-04T15:46:29;3.10;;;1.30;;
5225;SDS011;2632;51.666;7.146;2023-01-04T15:48:55;6.73;;;1.20;;
5225;SDS011;2632;51.666;7.146;2023-01-04T15:51:22;3.50;;;0.90;;
5225;SDS011;2632;51.666;7.146;2023-01-04T15:53:49;1.13;;;0.87;;
5225;SDS011;2632;51.666;7.146;2023-01-04T15:56:17;0.97;;;0.87;;
5225;SDS011;2632;51.666;7.146;2023-01-04T15:58:44;1.00;;;0.87;;
5225;SDS011;2632;51.666;7.146;2023-01-04T16:01:11;1.63;;;1.40;;
5225;SDS011;2632;51.666;7.146;2023-01-04T16:03:40;1.50;;;1.37;;
5225;SDS011;2632;51.666;7.146;2023-01-04T16:06:08;2.20;;;1.40;;
5225;SDS011;2632;51.666;7.146;2023-01-04T16:08:39;6.47;;;2.13;;
5225;SDS011;2632;51.666;7.146;2023-01-04T16:11:13;2.33;;;1.60;;
5225;SDS011;2632;51.666;7.146;2023-01-04T16:13:50;3.37;;;1.50;;
5225;SDS011;2632;51.666;7.146;2023-01-04T16:16:18;2.90;;;1.77;;
5225;SDS011;2632;51.666;7.146;2023-01-04T16:18:47;2.33;;;1.90;;
5225;SDS011;2632;51.666;7.146;2023-01-04T16:21:16;6.80;;;2.00;;
5225;SDS011;2632;51.666;7.146;2023-01-04T16:23:49;8.63;;;1.80;;
5225;SDS011;2632;51.666;7.146;2023-01-04T16:26:34;5.23;;;1.97;;
5225;SDS011;2632;51.666;7.146;2023-01-04T16:29:01;4.30;;;2.40;;
5225;SDS011;2632;51.666;7.146;2023-01-04T16:31:32;2.40;;;1.90;;
5225;SDS011;2632;51.666;7.146;2023-01-04T16:34:00;3.53;;;2.10;;
5225;SDS011;2632;51.666;7.146;2023-01-04T16:36:27;3.67;;;2.10;;
5225;SDS011;2632;51.666;7.146;2023-01-04T16:38:53;4.93;;;2.10;;
5225;SDS011;2632;51.666;7.146;2023-01-04T16:41:20;5.90;;;2.10;;
5225;SDS011;2632;51.666;7.146;2023-01-04T16:43:48;7.30;;;2.60;;
5225;SDS011;2632;51.666;7.146;2023-01-04T16:48:47;4.20;;;2.00;;
5225;SDS011;2632;51.666;7.146;2023-01-04T16:51:26;5.10;;;2.47;;
5225;SDS011;2632;51.666;7.146;2023-01-04T16:53:54;7.47;;;2.23;;
5225;SDS011;2632;51.666;7.146;2023-01-04T16:56:21;6.37;;;2.97;;
5225;SDS011;2632;51.666;7.146;2023-01-04T16:58:49;6.13;;;2.73;;
5225;SDS011;2632;51.666;7.146;2023-01-04T17:01:17;7.60;;;3.20;;
5225;SDS011;2632;51.666;7.146;2023-01-04T17:03:45;6.93;;;2.70;;
5225;SDS011;2632;51.666;7.146;2023-01-04T17:06:15;4.60;;;2.33;;
5225;SDS011;2632;51.666;7.146;2023-01-04T17:08:44;4.80;;;1.73;;
5225;SDS011;2632;51.666;7.146;2023-01-04T17:11:18;10.97;;;2.70;;
5225;SDS011;2632;51.666;7.146;2023-01-04T17:14:06;9.37;;;2.33;;
5225;SDS011;2632;51.666;7.146;2023-01-04T17:16:35;10.23;;;2.30;;
5225;SDS011;2632;51.666;7.146;2023-01-04T17:19:01;7.10;;;2.47;;
5225;SDS011;2632;51.666;7.146;2023-01-04T17:21:28;3.20;;;2.50;;
5225;SDS011;2632;51.666;7.146;2023-01-04T17:24:00;6.10;;;2.60;;
5225;SDS011;2632;51.666;7.146;2023-01-04T17:26:28;3.57;;;1.73;;
5225;SDS011;2632;51.666;7.146;2023-01-04T17:28:56;3.57;;;2.23;;